Map

Track Data

SID SEASON NUMBER BASIN SUBBASIN NAME ISO_TIME NATURE LAT LON WMO_WIND WMO_PRES WMO_AGENCY TRACK_TYPE DIST2LAND LANDFALL IFLAG USA_AGENCY USA_ATCF_ID USA_LAT USA_LON USA_RECORD USA_STATUS USA_WIND USA_PRES USA_SSHS USA_R34_NE USA_R34_SE USA_R34_SW USA_R34_NW USA_R50_NE USA_R50_SE USA_R50_SW USA_R50_NW USA_R64_NE USA_R64_SE USA_R64_SW USA_R64_NW USA_POCI USA_ROCI USA_RMW USA_EYE TOKYO_LAT TOKYO_LON TOKYO_GRADE TOKYO_WIND TOKYO_PRES TOKYO_R50_DIR TOKYO_R50_LONG TOKYO_R50_SHORT TOKYO_R30_DIR TOKYO_R30_LONG TOKYO_R30_SHORT TOKYO_LAND CMA_LAT CMA_LON CMA_CAT CMA_WIND CMA_PRES HKO_LAT HKO_LON HKO_CAT HKO_WIND HKO_PRES NEWDELHI_LAT NEWDELHI_LON NEWDELHI_GRADE NEWDELHI_WIND NEWDELHI_PRES NEWDELHI_CI NEWDELHI_DP NEWDELHI_POCI REUNION_LAT REUNION_LON REUNION_TYPE REUNION_WIND REUNION_PRES REUNION_TNUM REUNION_CI REUNION_RMW REUNION_R34_NE REUNION_R34_SE REUNION_R34_SW REUNION_R34_NW REUNION_R50_NE REUNION_R50_SE REUNION_R50_SW REUNION_R50_NW REUNION_R64_NE REUNION_R64_SE REUNION_R64_SW REUNION_R64_NW BOM_LAT BOM_LON BOM_TYPE BOM_WIND BOM_PRES BOM_TNUM BOM_CI BOM_RMW BOM_R34_NE BOM_R34_SE BOM_R34_SW BOM_R34_NW BOM_R50_NE BOM_R50_SE BOM_R50_SW BOM_R50_NW BOM_R64_NE BOM_R64_SE BOM_R64_SW BOM_R64_NW BOM_ROCI BOM_POCI BOM_EYE BOM_POS_METHOD BOM_PRES_METHOD NADI_LAT NADI_LON NADI_CAT NADI_WIND NADI_PRES WELLINGTON_LAT WELLINGTON_LON WELLINGTON_WIND WELLINGTON_PRES DS824_LAT DS824_LON DS824_STAGE DS824_WIND DS824_PRES TD9636_LAT TD9636_LON TD9636_STAGE TD9636_WIND TD9636_PRES TD9635_LAT TD9635_LON TD9635_WIND TD9635_PRES TD9635_ROCI NEUMANN_LAT NEUMANN_LON NEUMANN_CLASS NEUMANN_WIND NEUMANN_PRES MLC_LAT MLC_LON MLC_CLASS MLC_WIND MLC_PRES USA_GUST BOM_GUST BOM_GUST_PER REUNION_GUST REUNION_GUST_PER USA_SEAHGT USA_SEARAD_NE USA_SEARAD_SE USA_SEARAD_SW USA_SEARAD_NW STORM_SPEED STORM_DIR
2005287S09084 2006 95 SI MM NOT_NAMED 2005-10-13 18:00:00 TS -9.20000 84.2000 main 1738 1735 O___________O_ jtwc_sh SH012006 -9.20000 84.2000 DB 20 1007 -3 -9.20000 84.2000 TC 20 11 249
2005287S09084 2006 95 SI MM NOT_NAMED 2005-10-13 21:00:00 TS -9.38759 83.7025 main 1748 1746 P___________P_ SH012006 -9.38759 83.7025 DB 22 1005 -3 -9.38759 83.7025 TC 22 11 248
2005287S09084 2006 95 SI MM NOT_NAMED 2005-10-14 00:00:00 TS -9.60000 83.2000 main 1760 1758 O___________O_ jtwc_sh SH012006 -9.60000 83.2000 TD 25 1004 -1 1008 160 15 -9.60000 83.2000 TC 25 11 244
2005287S09084 2006 95 SI MM NOT_NAMED 2005-10-14 03:00:00 TS -9.86253 82.7050 main 1785 1784 P___________P_ SH012006 -9.86253 82.7050 TD 27 1002 -1 -9.86253 82.7050 TC 27 11 236
2005287S09084 2006 95 SI MM NOT_NAMED 2005-10-14 06:00:00 TS -10.2000 82.3000 main 1813 1813 O___________O_ jtwc_sh SH012006 -10.2000 82.3000 TD 30 1000 -1 -10.2000 82.3000 TC 30 10 219
2005287S09084 2006 95 SI MM NOT_NAMED 2005-10-14 09:00:00 TS -10.6274 82.0698 main 1856 1856 P___________P_ SH012006 -10.6274 82.0698 TD 32 998 -1 -10.6274 82.0698 TC 32 10 204
2005287S09084 2006 95 SI MM NOT_NAMED 2005-10-14 12:00:00 TS -11.1000 81.9000 main 1910 1910 O___________O_ jtwc_sh SH012006 -11.1000 81.9000 TS 35 997 0 -11.1000 81.9000 TC 35 10 205
2005287S09084 2006 95 SI MM NOT_NAMED 2005-10-14 15:00:00 TS -11.5426 81.6276 main 1952 1952 P___________P_ SH012006 -11.5426 81.6276 TS 37 995 0 -11.5426 81.6276 TC 37 10 209
2005287S09084 2006 95 SI MM NOT_NAMED 2005-10-14 18:00:00 TS -12.0000 81.4000 main 2007 2007 O___________O_ jtwc_sh SH012006 -12.0000 81.4000 TS 40 994 0 40 40 40 40 1006 200 45 -12.0000 81.4000 TC 40 10 196
2005287S09084 2006 95 SI MM NOT_NAMED 2005-10-14 21:00:00 TS -12.5299 81.3348 main 2063 2063 P___________P_ SH012006 -12.5299 81.3348 TS 40 994 0 40 40 40 40 1006 200 45 -12.5299 81.3348 TC 40 10 186
2005287S09084 2006 95 SI MM NOT_NAMED 2005-10-15 00:00:00 TS -13.0000 81.3000 main 2118 2118 O___________O_ jtwc_sh SH012006 -13.0000 81.3000 TS 40 994 0 40 40 40 40 1006 200 45 -13.0000 81.3000 TC 40 8 192
2005287S09084 2006 95 SI MM NOT_NAMED 2005-10-15 03:00:00 TS -13.2950 81.1725 main 2152 2151 P___________P_ SH012006 -13.2950 81.1725 TS 37 995 0 40 40 40 40 1006 200 45 -13.2950 81.1725 TC 37 6 210
2005287S09084 2006 95 SI MM NOT_NAMED 2005-10-15 06:00:00 TS -13.5000 81.0000 main 2173 2173 O___________O_ jtwc_sh SH012006 -13.5000 81.0000 TS 35 997 0 40 40 40 40 1006 200 45 -13.5000 81.0000 TC 35 5 219
2005287S09084 2006 95 SI MM NOT_NAMED 2005-10-15 09:00:00 TS -13.7150 80.8225 main 2196 2196 P___________P_ SH012006 -13.7150 80.8225 TS 35 996 0 1006 200 45 -13.7150 80.8225 TC 35 6 224
2005287S09084 2006 95 SI MM NOT_NAMED 2005-10-15 12:00:00 TS -13.9000 80.6000 main 2218 2218 O___________O_ jtwc_sh SH012006 -13.9000 80.6000 TS 35 996 0 1006 200 45 -13.9000 80.6000 TC 35 6 235
2005287S09084 2006 95 SI MM NOT_NAMED 2005-10-15 15:00:00 TS -14.0575 80.3150 main 2240 2240 P___________P_ SH012006 -14.0575 80.3150 TS 30 999 -1 -14.0575 80.3150 TC 30 7 243
2005287S09084 2006 95 SI MM NOT_NAMED 2005-10-15 18:00:00 TS -14.2000 80.0000 main 2252 2252 O___________O_ jtwc_sh SH012006 -14.2000 80.0000 TD 25 1002 -1 -14.2000 80.0000 TC 25 7 244
2005287S09084 2006 95 SI MM NOT_NAMED 2005-10-15 21:00:00 TS -14.3500 79.7000 main 2265 2265 P___________P_ SH012006 -14.3500 79.7000 TD 22 1003 -1 -14.3500 79.7000 TC 22 7 243
2005287S09084 2006 95 SI MM NOT_NAMED 2005-10-16 00:00:00 TS -14.5000 79.4000 main 2289 2289 O___________O_ jtwc_sh SH012006 -14.5000 79.4000 DB 20 1004 -3 -14.5000 79.4000 TC 20 7 242
2005287S09084 2006 95 SI MM NOT_NAMED 2005-10-16 03:00:00 TS -14.6575 79.0925 main 2313 2308 P___________P_ SH012006 -14.6575 79.0925 DB 20 1004 -3 -14.6575 79.0925 TC 20 7 243
2005287S09084 2006 95 SI MM NOT_NAMED 2005-10-16 06:00:00 TS -14.8000 78.8000 main 2308 2284 O___________O_ jtwc_sh SH012006 -14.8000 78.8000 DB 20 1004 -3 -14.8000 78.8000 TC 20 6 244
2005287S09084 2006 95 SI MM NOT_NAMED 2005-10-16 09:00:00 TS -14.9149 78.5425 main 2273 2250 P___________P_ SH012006 -14.9149 78.5425 DB 20 1004 -3 -14.9149 78.5425 TC 20 5 248
2005287S09084 2006 95 SI MM NOT_NAMED 2005-10-16 12:00:00 TS -15.0000 78.3000 main 2250 2226 O___________O_ jtwc_sh SH012006 -15.0000 78.3000 DB 20 1004 -3 -15.0000 78.3000 TC 20 5 252
2005287S09084 2006 95 SI MM NOT_NAMED 2005-10-16 15:00:00 TS -15.0725 78.0500 main 2226 2195 P___________P_ SH012006 -15.0725 78.0500 DB 20 1004 -3 -15.0725 78.0500 TC 20 5 258
2005287S09084 2006 95 SI MM NOT_NAMED 2005-10-16 18:00:00 MX -15.1000 77.8000 main 2195 2175 O___________O_ jtwc_sh SH012006 -15.1000 77.8000 EX 20 1004 -4 -15.1000 77.8000 TC 20 5 271
2005287S09084 2006 95 SI MM NOT_NAMED 2005-10-16 21:00:00 MX -15.0650 77.5425 main 2164 2148 P___________P_ SH012006 -15.0650 77.5425 EX 17 1005 -4 -15.0650 77.5425 TC 17 5 282
2005287S09084 2006 95 SI MM NOT_NAMED 2005-10-17 00:00:00 MX -15.0000 77.3000 main 2148 2127 O___________O_ jtwc_sh SH012006 -15.0000 77.3000 EX 15 1006 -4 -15.0000 77.3000 TC 15 5 285
2005287S09084 2006 95 SI MM NOT_NAMED 2005-10-17 03:00:00 MX -14.9450 77.0900 main 2131 2111 P___________P_ SH012006 -14.9450 77.0900 EX 15 1006 -4 -14.9450 77.0900 TC 15 4 285
2005287S09084 2006 95 SI MM NOT_NAMED 2005-10-17 06:00:00 MX -14.9000 76.9000 main 2111 O___________O_ jtwc_sh SH012006 -14.9000 76.9000 EX 15 1006 -4 -14.9000 76.9000 TC 15 4 284

About IBTrACS Database

This database is a web-friendly format of International Best Track Archive for Climate Stewardship (IBTrACS), a global best track data archive curated by NOAA dating back to 1842.

Updated: 2021-12-06